Time;durP1;ratioP1;P1;durP2;ratioP2;P2;SDS_P1;SDS_P2;PMS_P1;PMS_P2;Temp;Humidity;BMP_temperature;BMP_pressure;BME280_temperature;BME280_humidity;BME280_pressure;Samples;Min_cycle;Max_cycle;Signal;HPM_P1;HPM_P2
2021/12/09 00:02:13;;;;;;;8.45;4.80;;;;;;;;;;7380856;19;20531;-73
2021/12/09 00:04:39;;;;;;;10.35;5.30;;;;;;;;;;7387802;19;20010;-71
2021/12/09 00:07:04;;;;;;;11.18;5.18;;;;;;;;;;7383798;19;20086;-71
2021/12/09 00:09:31;;;;;;;6.88;4.38;;;;;;;;;;7385097;19;20002;-71
2021/12/09 00:11:58;;;;;;;9.15;4.50;;;;;;;;;;7384051;19;20043;-71
2021/12/09 00:14:30;;;;;;;14.23;5.75;;;;;;;;;;7384395;19;20014;-71
2021/12/09 00:17:00;;;;;;;7.72;3.78;;;;;;;;;;7384616;19;20437;-71
2021/12/09 00:19:26;;;;;;;7.93;4.10;;;;;;;;;;7384268;19;20006;-71
2021/12/09 00:21:52;;;;;;;9.82;4.88;;;;;;;;;;7381942;19;20017;-71
2021/12/09 00:24:17;;;;;;;10.63;4.63;;;;;;;;;;7385022;19;20007;-71
2021/12/09 00:26:44;;;;;;;8.25;3.53;;;;;;;;;;7386806;19;20078;-71
2021/12/09 00:29:10;;;;;;;7.07;3.58;;;;;;;;;;7383663;19;20013;-71
2021/12/09 00:31:36;;;;;;;5.38;3.00;;;;;;;;;;7384979;19;20010;-71
2021/12/09 00:34:02;;;;;;;5.35;2.95;;;;;;;;;;7386617;19;20002;-71
2021/12/09 00:36:36;;;;;;;6.65;3.17;;;;;;;;;;7384695;19;20607;-71
2021/12/09 00:39:03;;;;;;;5.90;3.10;;;;;;;;;;7383945;19;20006;-71
2021/12/09 00:41:28;;;;;;;6.45;3.05;;;;;;;;;;7383681;19;20444;-71
2021/12/09 00:43:53;;;;;;;5.50;3.40;;;;;;;;;;7383148;19;20083;-71
2021/12/09 00:46:19;;;;;;;7.15;3.20;;;;;;;;;;7384146;19;20010;-71
2021/12/09 00:48:44;;;;;;;5.93;3.40;;;;;;;;;;7383651;19;19998;-71
2021/12/09 00:51:10;;;;;;;4.45;3.30;;;;;;;;;;7381601;19;20110;-71
2021/12/09 00:53:37;;;;;;;4.18;3.00;;;;;;;;;;7384568;19;20002;-71
2021/12/09 00:56:05;;;;;;;3.25;2.35;;;;;;;;;;7382714;19;20031;-71
2021/12/09 00:58:30;;;;;;;3.38;2.47;;;;;;;;;;7383076;19;20452;-71
2021/12/09 01:00:56;;;;;;;3.47;2.75;;;;;;;;;;7382068;19;20035;-71
2021/12/09 01:03:21;;;;;;;3.45;2.63;;;;;;;;;;7383829;19;20077;-71
2021/12/09 01:05:47;;;;;;;3.20;2.22;;;;;;;;;;7383046;19;20002;-71
2021/12/09 01:08:13;;;;;;;3.42;2.47;;;;;;;;;;7383372;19;20455;-71
2021/12/09 01:10:39;;;;;;;3.10;2.30;;;;;;;;;;7379824;19;20144;-71
2021/12/09 01:13:05;;;;;;;3.80;2.58;;;;;;;;;;7384844;19;20070;-71
2021/12/09 01:15:30;;;;;;;2.63;1.98;;;;;;;;;;7382499;19;20117;-71
2021/12/09 01:17:56;;;;;;;2.85;2.15;;;;;;;;;;7383200;19;20309;-71
2021/12/09 01:20:25;;;;;;;2.55;1.85;;;;;;;;;;7383538;19;20362;-71
2021/12/09 01:22:55;;;;;;;1.95;1.75;;;;;;;;;;7383961;19;20006;-73
2021/12/09 01:25:23;;;;;;;2.42;1.85;;;;;;;;;;7383786;19;20492;-71
2021/12/09 01:27:52;;;;;;;2.65;1.98;;;;;;;;;;7380496;19;20464;-71
2021/12/09 01:30:19;;;;;;;2.63;1.80;;;;;;;;;;7382423;19;20006;-71
2021/12/09 01:32:50;;;;;;;1.65;1.52;;;;;;;;;;7383376;19;20395;-71
2021/12/09 01:35:19;;;;;;;2.33;1.83;;;;;;;;;;7380942;19;20021;-71
2021/12/09 01:37:45;;;;;;;2.13;1.67;;;;;;;;;;7382167;19;20395;-71
2021/12/09 01:40:11;;;;;;;1.55;1.42;;;;;;;;;;7381791;19;20010;-71
2021/12/09 01:42:37;;;;;;;2.15;1.73;;;;;;;;;;7382865;19;20118;-71
2021/12/09 01:45:04;;;;;;;2.25;1.77;;;;;;;;;;7381067;19;19995;-71
2021/12/09 01:47:29;;;;;;;2.38;1.92;;;;;;;;;;7382942;19;20368;-71
2021/12/09 01:49:55;;;;;;;2.30;1.85;;;;;;;;;;7382262;19;20309;-73
2021/12/09 01:52:20;;;;;;;1.73;1.58;;;;;;;;;;7380324;19;20010;-71
2021/12/09 01:54:46;;;;;;;1.58;1.35;;;;;;;;;;7384143;19;20068;-71
2021/12/09 01:57:11;;;;;;;1.98;1.70;;;;;;;;;;7380384;19;20010;-71
2021/12/09 01:59:37;;;;;;;1.98;1.60;;;;;;;;;;7383431;19;20002;-71
2021/12/09 02:02:02;;;;;;;2.10;1.90;;;;;;;;;;7386285;19;20029;-70
2021/12/09 02:04:28;;;;;;;2.35;1.73;;;;;;;;;;7390326;19;20465;-71
2021/12/09 02:06:53;;;;;;;3.50;1.73;;;;;;;;;;7390866;19;20013;-71
2021/12/09 02:09:19;;;;;;;4.43;2.38;;;;;;;;;;7391944;19;20006;-71
2021/12/09 02:11:46;;;;;;;2.25;2.05;;;;;;;;;;7386395;19;20786;-71
2021/12/09 02:14:12;;;;;;;4.45;2.60;;;;;;;;;;7390028;19;20027;-71
2021/12/09 02:16:37;;;;;;;4.18;2.15;;;;;;;;;;7389161;19;20023;-71
2021/12/09 02:19:04;;;;;;;3.03;2.30;;;;;;;;;;7390291;19;20006;-71
2021/12/09 02:21:33;;;;;;;3.60;2.42;;;;;;;;;;7385730;19;20074;-71
2021/12/09 02:24:01;;;;;;;3.58;2.13;;;;;;;;;;7391078;19;20002;-71
2021/12/09 02:26:34;;;;;;;6.90;2.70;;;;;;;;;;7387831;19;20078;-72
2021/12/09 02:29:00;;;;;;;6.03;2.85;;;;;;;;;;7389138;19;20035;-71
2021/12/09 02:31:26;;;;;;;6.90;3.42;;;;;;;;;;7388189;19;20030;-71
2021/12/09 02:33:52;;;;;;;5.43;3.00;;;;;;;;;;7387540;19;20438;-71
2021/12/09 02:36:17;;;;;;;4.20;2.70;;;;;;;;;;7389383;19;20002;-71
2021/12/09 02:38:44;;;;;;;6.43;3.65;;;;;;;;;;7388954;19;20457;-71
2021/12/09 02:41:17;;;;;;;3.90;2.33;;;;;;;;;;7386460;19;20007;-71
2021/12/09 02:43:51;;;;;;;5.53;2.83;;;;;;;;;;7392875;19;20007;-71
2021/12/09 02:46:17;;;;;;;5.23;2.47;;;;;;;;;;7386396;19;20013;-71
2021/12/09 02:48:45;;;;;;;3.22;2.30;;;;;;;;;;7388848;19;20017;-71
2021/12/09 02:51:11;;;;;;;2.65;2.00;;;;;;;;;;7388792;19;20003;-73
2021/12/09 02:53:36;;;;;;;3.72;2.50;;;;;;;;;;7386852;19;20003;-71
2021/12/09 02:56:03;;;;;;;3.33;2.65;;;;;;;;;;7387220;19;20115;-71
2021/12/09 02:58:28;;;;;;;3.05;2.30;;;;;;;;;;7388972;19;20018;-71
2021/12/09 03:01:14;;;;;;;3.10;2.47;;;;;;;;;;7386159;19;20107;-71
2021/12/09 03:03:48;;;;;;;3.03;2.30;;;;;;;;;;7389201;19;20132;-71
2021/12/09 03:06:13;;;;;;;2.85;2.15;;;;;;;;;;7386404;19;20010;-71
2021/12/09 03:08:40;;;;;;;2.75;1.92;;;;;;;;;;7386653;19;20043;-71
2021/12/09 03:11:09;;;;;;;2.13;1.90;;;;;;;;;;7384247;19;20013;-71
2021/12/09 03:13:36;;;;;;;2.80;2.05;;;;;;;;;;7388738;19;20018;-72
2021/12/09 03:16:02;;;;;;;2.35;1.83;;;;;;;;;;7386525;19;20018;-70
2021/12/09 03:18:28;;;;;;;3.55;2.65;;;;;;;;;;7387264;19;20006;-70
2021/12/09 03:20:53;;;;;;;3.53;2.42;;;;;;;;;;7386371;19;20044;-71
2021/12/09 03:23:18;;;;;;;2.58;1.92;;;;;;;;;;7387852;19;20041;-73
2021/12/09 03:25:44;;;;;;;2.35;2.15;;;;;;;;;;7386330;19;20010;-71
2021/12/09 03:28:09;;;;;;;2.15;1.95;;;;;;;;;;7386982;19;20027;-73
2021/12/09 03:30:34;;;;;;;3.10;2.53;;;;;;;;;;7386817;19;20010;-71
2021/12/09 03:33:00;;;;;;;2.28;2.08;;;;;;;;;;7386898;19;20017;-73
2021/12/09 03:35:25;;;;;;;2.63;2.22;;;;;;;;;;7384757;19;20086;-71
2021/12/09 03:37:51;;;;;;;4.68;3.22;;;;;;;;;;7389179;19;20074;-73
2021/12/09 03:40:16;;;;;;;5.00;3.20;;;;;;;;;;7383705;19;20052;-71
2021/12/09 03:42:43;;;;;;;5.28;2.83;;;;;;;;;;7388776;19;20013;-71
2021/12/09 03:45:09;;;;;;;4.38;2.67;;;;;;;;;;7387207;19;20066;-71
2021/12/09 03:47:36;;;;;;;2.92;2.47;;;;;;;;;;7387194;19;20023;-71
2021/12/09 03:50:05;;;;;;;4.20;2.72;;;;;;;;;;7385736;19;20176;-71
2021/12/09 03:52:31;;;;;;;5.10;2.97;;;;;;;;;;7388379;19;20069;-71
2021/12/09 03:54:57;;;;;;;5.15;3.05;;;;;;;;;;7388452;19;20028;-71
2021/12/09 03:57:23;;;;;;;8.40;3.50;;;;;;;;;;7386038;19;20375;-71
2021/12/09 03:59:48;;;;;;;3.65;2.42;;;;;;;;;;7386574;19;20014;-71
2021/12/09 04:02:14;;;;;;;3.45;2.40;;;;;;;;;;7381144;19;20010;-73
2021/12/09 04:04:40;;;;;;;3.13;2.53;;;;;;;;;;7387777;19;20432;-73
2021/12/09 04:07:05;;;;;;;3.00;2.13;;;;;;;;;;7383372;19;20009;-71
2021/12/09 04:09:31;;;;;;;3.30;2.22;;;;;;;;;;7386814;19;20002;-71
2021/12/09 04:11:56;;;;;;;3.28;2.42;;;;;;;;;;7383401;19;20417;-71
2021/12/09 04:14:21;;;;;;;3.03;2.28;;;;;;;;;;7384174;19;20070;-71
2021/12/09 04:16:48;;;;;;;2.55;2.13;;;;;;;;;;7384375;19;20023;-71
2021/12/09 04:19:13;;;;;;;3.35;2.60;;;;;;;;;;7382103;19;20006;-71
2021/12/09 04:21:40;;;;;;;9.20;4.05;;;;;;;;;;7377497;19;20034;-71
2021/12/09 04:24:08;;;;;;;4.07;2.38;;;;;;;;;;7382249;19;21789;-71
2021/12/09 04:26:38;;;;;;;5.10;2.90;;;;;;;;;;7385605;19;20067;-71
2021/12/09 04:29:04;;;;;;;3.85;2.60;;;;;;;;;;7382953;19;20095;-71
2021/12/09 04:31:30;;;;;;;5.03;2.75;;;;;;;;;;7382875;19;20006;-71
2021/12/09 04:33:55;;;;;;;3.47;2.58;;;;;;;;;;7384546;19;20454;-71
2021/12/09 04:36:21;;;;;;;4.63;2.97;;;;;;;;;;7384345;19;20003;-71
2021/12/09 04:38:48;;;;;;;9.55;6.20;;;;;;;;;;7383916;19;20031;-71
2021/12/09 04:41:15;;;;;;;6.80;3.92;;;;;;;;;;7382192;19;20010;-71
2021/12/09 04:43:42;;;;;;;6.30;3.42;;;;;;;;;;7384507;19;20452;-72
2021/12/09 04:46:08;;;;;;;6.00;4.13;;;;;;;;;;7384286;19;20009;-73
2021/12/09 04:48:34;;;;;;;5.85;3.92;;;;;;;;;;7382216;19;20308;-71
2021/12/09 04:50:59;;;;;;;8.32;5.10;;;;;;;;;;7382907;19;20002;-71
2021/12/09 04:53:24;;;;;;;4.85;3.45;;;;;;;;;;7380775;19;20574;-73
2021/12/09 04:55:50;;;;;;;5.90;3.38;;;;;;;;;;7384511;19;20007;-71
2021/12/09 04:58:15;;;;;;;6.22;3.58;;;;;;;;;;7381205;19;20025;-72
2021/12/09 05:00:41;;;;;;;5.78;4.13;;;;;;;;;;7382279;19;20006;-71
2021/12/09 05:03:10;;;;;;;4.70;3.30;;;;;;;;;;7383763;19;20010;-71
2021/12/09 05:05:40;;;;;;;5.25;3.20;;;;;;;;;;7382644;19;20019;-72
2021/12/09 05:08:09;;;;;;;4.30;2.85;;;;;;;;;;7382497;19;20441;-73
2021/12/09 05:10:50;;;;;;;4.22;3.00;;;;;;;;;;7381519;19;20004;-72
2021/12/09 05:13:17;;;;;;;3.97;2.70;;;;;;;;;;7381374;19;20630;-71
2021/12/09 05:15:42;;;;;;;3.67;2.78;;;;;;;;;;7383299;19;20476;-71
2021/12/09 05:18:08;;;;;;;4.43;3.30;;;;;;;;;;7348770;19;20018;-73
2021/12/09 05:20:33;;;;;;;4.47;3.25;;;;;;;;;;7381042;19;20018;-71
2021/12/09 05:22:59;;;;;;;3.53;2.60;;;;;;;;;;7380700;19;20082;-73
2021/12/09 05:25:24;;;;;;;3.22;2.50;;;;;;;;;;7383444;19;20579;-73
2021/12/09 05:27:49;;;;;;;3.95;2.85;;;;;;;;;;7381779;19;20023;-73
2021/12/09 05:30:22;;;;;;;3.05;2.58;;;;;;;;;;7381191;19;20011;-71
2021/12/09 05:32:48;;;;;;;4.50;3.08;;;;;;;;;;7371231;19;20023;-73
2021/12/09 05:35:14;;;;;;;3.17;2.45;;;;;;;;;;7379502;19;20003;-73
2021/12/09 05:37:39;;;;;;;4.57;3.20;;;;;;;;;;7380603;19;20403;-71
2021/12/09 05:40:06;;;;;;;3.60;2.40;;;;;;;;;;7376459;19;20114;-71
2021/12/09 05:42:31;;;;;;;3.38;2.60;;;;;;;;;;7348632;19;20465;-73
2021/12/09 05:44:57;;;;;;;4.38;2.92;;;;;;;;;;7378848;19;20045;-72
2021/12/09 05:47:22;;;;;;;4.05;2.72;;;;;;;;;;7380565;19;20002;-73
2021/12/09 05:49:48;;;;;;;3.85;2.88;;;;;;;;;;7380268;19;20779;-72
2021/12/09 05:52:15;;;;;;;4.18;3.13;;;;;;;;;;7377468;19;20453;-72
2021/12/09 05:54:41;;;;;;;4.93;3.47;;;;;;;;;;7377852;19;20797;-74
2021/12/09 05:57:06;;;;;;;5.90;3.33;;;;;;;;;;7379282;19;20015;-73
2021/12/09 05:59:32;;;;;;;5.25;3.63;;;;;;;;;;7379209;19;20030;-72
2021/12/09 06:01:57;;;;;;;7.20;3.92;;;;;;;;;;7371769;19;20358;-72
2021/12/09 06:04:23;;;;;;;4.85;3.38;;;;;;;;;;7377331;19;20126;-72
2021/12/09 06:06:50;;;;;;;3.25;2.63;;;;;;;;;;7372536;19;20070;-72
2021/12/09 06:09:15;;;;;;;4.28;3.17;;;;;;;;;;7376930;19;20476;-73
2021/12/09 06:11:45;;;;;;;3.15;2.63;;;;;;;;;;7375081;19;20007;-72
2021/12/09 06:14:10;;;;;;;2.88;2.28;;;;;;;;;;7380588;19;20502;-72
2021/12/09 06:16:36;;;;;;;3.65;2.70;;;;;;;;;;7378388;19;20083;-72
2021/12/09 06:19:03;;;;;;;3.38;2.40;;;;;;;;;;7378103;19;20322;-73
2021/12/09 06:21:28;;;;;;;4.63;2.50;;;;;;;;;;7374998;19;20100;-75
2021/12/09 06:24:01;;;;;;;4.50;2.67;;;;;;;;;;7378604;19;20387;-73
2021/12/09 06:26:28;;;;;;;3.45;2.25;;;;;;;;;;7379335;19;20067;-73
2021/12/09 06:28:54;;;;;;;2.97;2.22;;;;;;;;;;7377976;19;20026;-72
2021/12/09 06:31:20;;;;;;;5.70;4.18;;;;;;;;;;7378001;19;20078;-72
2021/12/09 06:33:46;;;;;;;6.35;4.07;;;;;;;;;;7379560;19;20018;-72
2021/12/09 06:36:12;;;;;;;3.70;3.00;;;;;;;;;;7376901;19;20011;-75
2021/12/09 06:38:37;;;;;;;3.50;2.60;;;;;;;;;;7376039;19;20009;-73
2021/12/09 06:41:03;;;;;;;4.40;3.33;;;;;;;;;;7374659;19;20070;-72
2021/12/09 06:43:29;;;;;;;4.47;3.30;;;;;;;;;;7378128;19;20014;-72
2021/12/09 06:45:56;;;;;;;4.63;3.38;;;;;;;;;;7377857;19;20148;-72
2021/12/09 06:48:22;;;;;;;3.28;2.78;;;;;;;;;;7380294;19;20002;-72
2021/12/09 06:50:48;;;;;;;3.00;2.60;;;;;;;;;;7385415;19;20017;-72
2021/12/09 06:53:14;;;;;;;3.72;2.65;;;;;;;;;;7383653;19;20006;-72
2021/12/09 06:55:40;;;;;;;3.35;2.45;;;;;;;;;;7385592;19;20014;-72
2021/12/09 06:58:06;;;;;;;3.88;2.55;;;;;;;;;;7379997;19;20018;-75
2021/12/09 07:00:34;;;;;;;9.43;4.88;;;;;;;;;;7375435;19;20006;-73
2021/12/09 07:03:01;;;;;;;8.63;5.20;;;;;;;;;;7382672;19;20047;-73
2021/12/09 07:05:29;;;;;;;16.20;6.60;;;;;;;;;;7385637;19;20005;-73
2021/12/09 07:07:56;;;;;;;6.03;3.50;;;;;;;;;;7381383;19;20027;-76
2021/12/09 07:10:22;;;;;;;4.38;2.95;;;;;;;;;;7382901;19;20601;-76
2021/12/09 07:12:48;;;;;;;3.72;2.65;;;;;;;;;;7384887;19;20021;-74
2021/12/09 07:15:15;;;;;;;4.03;2.90;;;;;;;;;;7386966;19;20003;-75
2021/12/09 07:17:41;;;;;;;3.33;2.55;;;;;;;;;;7383472;19;20010;-75
2021/12/09 07:20:10;;;;;;;3.67;2.63;;;;;;;;;;7384034;19;20011;-76
2021/12/09 07:22:36;;;;;;;3.97;3.10;;;;;;;;;;7385478;19;20003;-73
2021/12/09 07:25:03;;;;;;;2.97;2.45;;;;;;;;;;7386476;19;20125;-75
2021/12/09 07:27:29;;;;;;;3.42;2.40;;;;;;;;;;7385196;19;20123;-75
2021/12/09 07:29:54;;;;;;;3.20;2.35;;;;;;;;;;7385451;19;20868;-75
2021/12/09 07:32:20;;;;;;;3.70;2.80;;;;;;;;;;7383613;19;20492;-75
2021/12/09 07:34:45;;;;;;;3.30;2.58;;;;;;;;;;7384893;19;20055;-74
2021/12/09 07:37:10;;;;;;;3.58;2.72;;;;;;;;;;7383252;19;20611;-73
2021/12/09 07:39:37;;;;;;;3.55;2.55;;;;;;;;;;7385255;19;20015;-72
2021/12/09 07:42:03;;;;;;;4.38;2.50;;;;;;;;;;7381363;19;20003;-76
2021/12/09 07:44:30;;;;;;;3.80;3.03;;;;;;;;;;7386984;19;20038;-74
2021/12/09 07:46:56;;;;;;;4.22;2.90;;;;;;;;;;7386298;19;20262;-73
2021/12/09 07:49:23;;;;;;;5.47;3.15;;;;;;;;;;7386724;19;20014;-75
2021/12/09 07:51:49;;;;;;;3.33;2.90;;;;;;;;;;7381741;19;20036;-73
2021/12/09 07:54:15;;;;;;;6.90;3.35;;;;;;;;;;7387062;19;20006;-72
2021/12/09 07:56:40;;;;;;;4.53;3.33;;;;;;;;;;7381410;19;20034;-70
2021/12/09 07:59:05;;;;;;;3.33;2.67;;;;;;;;;;7381550;19;20314;-73
2021/12/09 08:01:30;;;;;;;3.33;2.35;;;;;;;;;;7380785;19;20010;-72
2021/12/09 08:03:56;;;;;;;4.28;3.13;;;;;;;;;;7381286;19;20006;-73
2021/12/09 08:06:21;;;;;;;4.38;3.03;;;;;;;;;;7383525;19;20002;-74
2021/12/09 08:08:47;;;;;;;3.13;2.53;;;;;;;;;;7383042;19;20023;-73
2021/12/09 08:11:12;;;;;;;3.72;2.63;;;;;;;;;;7382265;19;20327;-75
2021/12/09 08:13:38;;;;;;;3.38;2.70;;;;;;;;;;7382386;19;20018;-76
2021/12/09 08:16:03;;;;;;;3.28;2.22;;;;;;;;;;7383335;19;20381;-75
2021/12/09 08:18:32;;;;;;;3.80;2.53;;;;;;;;;;7384548;19;19997;-76
2021/12/09 08:21:00;;;;;;;3.13;2.55;;;;;;;;;;7382110;19;20018;-76
2021/12/09 08:23:26;;;;;;;3.60;2.50;;;;;;;;;;7384974;19;19991;-80
2021/12/09 08:25:52;;;;;;;3.40;2.33;;;;;;;;;;7383105;19;20508;-75
2021/12/09 08:28:18;;;;;;;3.42;2.58;;;;;;;;;;7383083;19;19999;-73
2021/12/09 08:30:44;;;;;;;3.15;2.50;;;;;;;;;;7382204;19;20027;-76
2021/12/09 08:33:10;;;;;;;3.40;2.58;;;;;;;;;;7384365;19;20030;-74
2021/12/09 08:35:36;;;;;;;3.75;2.78;;;;;;;;;;7384302;19;19999;-73
2021/12/09 08:38:04;;;;;;;2.13;1.92;;;;;;;;;;7381384;19;20345;-73
2021/12/09 08:40:29;;;;;;;3.47;2.20;;;;;;;;;;7382204;19;20017;-77
2021/12/09 08:42:55;;;;;;;2.80;2.13;;;;;;;;;;7337488;19;20014;-76
2021/12/09 08:45:21;;;;;;;3.30;2.20;;;;;;;;;;7382920;19;20014;-76
2021/12/09 08:47:47;;;;;;;3.53;2.45;;;;;;;;;;7383817;19;20018;-76
2021/12/09 08:50:18;;;;;;;4.68;2.75;;;;;;;;;;7374426;19;20013;-72
2021/12/09 08:52:43;;;;;;;3.33;2.25;;;;;;;;;;7381603;19;19998;-76
2021/12/09 08:55:09;;;;;;;3.70;2.97;;;;;;;;;;7380716;19;20026;-76
2021/12/09 08:57:37;;;;;;;3.92;2.50;;;;;;;;;;7380545;19;20013;-73
2021/12/09 09:00:12;;;;;;;2.75;2.50;;;;;;;;;;7379555;19;20014;-73
2021/12/09 09:02:44;;;;;;;2.78;2.28;;;;;;;;;;7372017;19;20026;-80
2021/12/09 09:05:13;;;;;;;2.88;2.13;;;;;;;;;;7380623;19;20387;-73
2021/12/09 09:07:39;;;;;;;3.25;2.50;;;;;;;;;;7379565;19;19999;-74
2021/12/09 09:10:05;;;;;;;4.18;2.63;;;;;;;;;;7377759;19;20476;-73
2021/12/09 09:12:33;;;;;;;3.75;2.80;;;;;;;;;;7379428;19;21912;-78
2021/12/09 09:14:59;;;;;;;3.72;2.90;;;;;;;;;;7379568;19;20010;-74
2021/12/09 09:17:24;;;;;;;4.47;3.15;;;;;;;;;;7380957;19;20557;-75
2021/12/09 09:19:50;;;;;;;3.90;2.72;;;;;;;;;;7379726;19;20014;-74
2021/12/09 09:22:15;;;;;;;4.82;3.30;;;;;;;;;;7377207;19;20113;-73
2021/12/09 09:24:40;;;;;;;4.47;2.90;;;;;;;;;;7379844;19;20027;-75
2021/12/09 09:27:06;;;;;;;4.80;3.30;;;;;;;;;;7379077;19;20006;-73
2021/12/09 09:29:34;;;;;;;4.47;3.00;;;;;;;;;;7378551;19;20379;-76
2021/12/09 09:31:59;;;;;;;4.65;2.65;;;;;;;;;;7376263;19;20011;-74
2021/12/09 09:34:24;;;;;;;6.43;3.10;;;;;;;;;;7347298;19;20031;-74
2021/12/09 09:36:50;;;;;;;10.70;3.13;;;;;;;;;;7379910;19;20034;-75
2021/12/09 09:39:21;;;;;;;6.70;3.08;;;;;;;;;;7378108;19;20011;-73
2021/12/09 09:41:58;;;;;;;4.85;3.05;;;;;;;;;;7378986;19;20780;-73
2021/12/09 09:44:29;;;;;;;3.92;3.05;;;;;;;;;;7380423;19;20014;-77
2021/12/09 09:46:58;;;;;;;6.00;3.40;;;;;;;;;;7380562;19;20682;-74
2021/12/09 09:49:24;;;;;;;5.22;3.30;;;;;;;;;;7380007;19;20041;-75
2021/12/09 09:51:49;;;;;;;4.40;3.10;;;;;;;;;;7379230;19;20045;-76
2021/12/09 09:54:14;;;;;;;5.35;3.30;;;;;;;;;;7379253;19;20010;-73
2021/12/09 09:56:42;;;;;;;4.90;3.28;;;;;;;;;;7378079;19;20465;-74
2021/12/09 09:59:12;;;;;;;6.93;3.55;;;;;;;;;;7379088;19;20039;-73
2021/12/09 10:01:39;;;;;;;5.53;3.47;;;;;;;;;;7375474;19;20014;-74
2021/12/09 10:04:10;;;;;;;5.80;3.83;;;;;;;;;;7372994;19;20011;-77
2021/12/09 10:06:38;;;;;;;7.00;3.67;;;;;;;;;;7347190;19;20006;-76
2021/12/09 10:09:06;;;;;;;4.90;3.60;;;;;;;;;;7377123;19;20074;-74
2021/12/09 10:11:32;;;;;;;9.48;3.95;;;;;;;;;;7378878;19;20333;-74
2021/12/09 10:14:10;;;;;;;5.78;3.58;;;;;;;;;;7378579;19;20010;-74
2021/12/09 10:16:38;;;;;;;7.35;3.97;;;;;;;;;;7377134;19;20053;-75
2021/12/09 10:19:15;;;;;;;5.45;3.80;;;;;;;;;;7376569;19;20007;-74
2021/12/09 10:21:41;;;;;;;5.95;3.85;;;;;;;;;;7381288;19;20128;-76
2021/12/09 10:24:07;;;;;;;7.70;4.63;;;;;;;;;;7383726;19;20022;-72
2021/12/09 10:26:46;;;;;;;5.90;3.92;;;;;;;;;;7380687;19;20066;-75
2021/12/09 10:29:31;;;;;;;11.70;4.78;;;;;;;;;;7382907;19;19995;-72
2021/12/09 10:32:01;;;;;;;6.55;4.47;;;;;;;;;;7385682;19;20049;-72
2021/12/09 10:37:06;;;;;;;10.85;4.15;;;;;;;;;;7384893;19;20009;-72
2021/12/09 10:39:41;;;;;;;6.28;4.07;;;;;;;;;;7383523;19;20002;-72
2021/12/09 10:42:14;;;;;;;7.30;4.03;;;;;;;;;;7379856;19;20047;-71
2021/12/09 10:44:46;;;;;;;5.93;4.00;;;;;;;;;;7383004;19;20013;-72
2021/12/09 10:47:22;;;;;;;8.95;4.53;;;;;;;;;;7379983;19;20013;-72
2021/12/09 10:50:10;;;;;;;;;;;;;;;;;;7384894;19;20011;-72
2021/12/09 10:52:42;;;;;;;9.80;4.00;;;;;;;;;;7384538;19;19934;-76
2021/12/09 10:55:15;;;;;;;8.30;3.83;;;;;;;;;;7384106;19;20317;-74
2021/12/09 10:57:41;;;;;;;7.80;4.22;;;;;;;;;;7386608;19;20011;-72
2021/12/09 11:00:20;;;;;;;7.47;4.38;;;;;;;;;;7383132;19;20091;-73
2021/12/09 11:03:05;;;;;;;12.35;4.75;;;;;;;;;;7384307;19;20063;-72
2021/12/09 11:05:33;;;;;;;6.93;4.30;;;;;;;;;;7384194;19;20065;-72
2021/12/09 11:08:18;;;;;;;8.23;4.32;;;;;;;;;;7378902;19;20010;-73
2021/12/09 11:10:47;;;;;;;10.52;4.50;;;;;;;;;;7382524;19;20311;-71
2021/12/09 11:13:18;;;;;;;6.93;4.05;;;;;;;;;;7382679;19;20025;-72
2021/12/09 11:15:54;;;;;;;9.35;5.03;;;;;;;;;;7388045;19;20027;-72
2021/12/09 11:18:35;;;;;;;9.45;4.25;;;;;;;;;;7383850;19;20138;-71
2021/12/09 11:21:04;;;;;;;8.63;4.10;;;;;;;;;;7381809;19;20021;-72
2021/12/09 11:23:43;;;;;;;6.28;4.03;;;;;;;;;;7379044;19;20146;-72
2021/12/09 11:27:13;;;;;;;6.45;3.70;;;;;;;;;;7382144;19;20016;-70
2021/12/09 11:29:35;;;;;;;6.07;3.88;;;;;;;;;;7381206;19;20472;-72
2021/12/09 11:32:17;;;;;;;9.55;4.30;;;;;;;;;;7379244;19;20139;-72
2021/12/09 11:34:49;;;;;;;6.90;3.75;;;;;;;;;;7385947;19;20125;-71
2021/12/09 11:40:12;;;;;;;9.38;3.75;;;;;;;;;;7384381;19;20007;-72
2021/12/09 11:43:12;;;;;;;7.63;4.28;;;;;;;;;;7379635;19;20025;-75
2021/12/09 11:45:33;;;;;;;10.05;4.30;;;;;;;;;;7381777;19;20667;-72
2021/12/09 11:47:59;;;;;;;8.48;4.45;;;;;;;;;;7384809;19;20014;-72
2021/12/09 11:50:31;;;;;;;10.77;4.35;;;;;;;;;;7383658;19;20018;-71
2021/12/09 11:52:59;;;;;;;17.25;4.30;;;;;;;;;;7380843;19;20006;-72
2021/12/09 11:55:37;;;;;;;7.50;3.35;;;;;;;;;;7385884;19;20528;-72
2021/12/09 11:58:11;;;;;;;4.90;2.90;;;;;;;;;;7384427;19;20011;-72
2021/12/09 12:06:43;;;;;;;5.40;3.22;;;;;;;;;;7382335;19;20007;-72
2021/12/09 12:12:21;;;;;;;4.88;2.80;;;;;;;;;;7382943;19;20461;-73
2021/12/09 12:14:49;;;;;;;6.03;2.85;;;;;;;;;;7381818;19;20040;-74
2021/12/09 12:17:23;;;;;;;4.90;2.33;;;;;;;;;;7383596;19;20043;-72
2021/12/09 12:25:37;;;;;;;8.52;4.18;;;;;;;;;;7382712;19;20010;-71
2021/12/09 12:28:27;;;;;;;5.00;2.65;;;;;;;;;;7381068;19;20031;-71
2021/12/09 12:37:07;;;;;;;5.80;2.90;;;;;;;;;;7382352;19;20018;-72
2021/12/09 12:42:17;;;;;;;5.72;2.58;;;;;;;;;;7380634;19;20014;-71
2021/12/09 12:48:37;;;;;;;5.32;2.78;;;;;;;;;;7380012;19;20068;-75
2021/12/09 12:50:36;;;;;;;5.65;2.35;;;;;;;;;;7380167;19;20035;-72
2021/12/09 12:53:32;;;;;;;9.05;2.60;;;;;;;;;;7381782;19;20003;-77
2021/12/09 12:56:24;;;;;;;5.88;2.30;;;;;;;;;;7383129;19;20069;-72
2021/12/09 12:59:06;;;;;;;6.10;2.30;;;;;;;;;;7380202;19;20010;-70
2021/12/09 13:01:33;;;;;;;4.82;2.65;;;;;;;;;;7381921;19;20901;-71
2021/12/09 13:04:10;;;;;;;10.13;2.58;;;;;;;;;;7383081;19;20078;-73
2021/12/09 13:06:40;;;;;;;6.70;2.95;;;;;;;;;;7380603;19;20014;-71
2021/12/09 13:09:51;;;;;;;7.43;2.50;;;;;;;;;;7382069;19;20013;-73
2021/12/09 13:12:40;;;;;;;4.67;2.10;;;;;;;;;;7380741;19;20108;-72
2021/12/09 13:15:24;;;;;;;10.80;2.40;;;;;;;;;;7383171;19;20448;-72
2021/12/09 13:18:00;;;;;;;8.80;2.25;;;;;;;;;;7381907;19;20017;-74
2021/12/09 13:20:33;;;;;;;7.22;3.42;;;;;;;;;;7379790;19;20014;-75
2021/12/09 13:23:18;;;;;;;6.35;2.17;;;;;;;;;;7381951;19;20015;-74
2021/12/09 13:26:24;;;;;;;4.88;2.63;;;;;;;;;;7382943;19;20035;-73
2021/12/09 13:29:02;;;;;;;5.85;2.63;;;;;;;;;;7381046;19;20010;-72
2021/12/09 13:31:56;;;;;;;3.92;2.05;;;;;;;;;;7379846;19;20038;-73
2021/12/09 13:34:33;;;;;;;4.63;2.13;;;;;;;;;;7379484;19;20809;-71
2021/12/09 13:48:14;;;;;;;7.00;2.92;;;;;;;;;;7381662;19;20010;-73
2021/12/09 13:50:50;;;;;;;6.78;2.50;;;;;;;;;;7380007;19;20007;-71
2021/12/09 13:56:00;;;;;;;6.82;1.92;;;;;;;;;;7379463;19;20019;-70
2021/12/09 13:58:25;;;;;;;3.67;2.08;;;;;;;;;;7376581;19;20011;-71
2021/12/09 14:00:52;;;;;;;2.63;1.75;;;;;;;;;;7377408;19;20065;-71
2021/12/09 14:03:21;;;;;;;4.90;2.35;;;;;;;;;;7377467;19;20011;-71
2021/12/09 14:05:54;;;;;;;4.88;1.80;;;;;;;;;;7380065;19;20230;-71
2021/12/09 14:08:34;;;;;;;5.55;2.10;;;;;;;;;;7379273;19;20014;-71
2021/12/09 14:11:05;;;;;;;6.93;2.20;;;;;;;;;;7378832;19;20007;-71
2021/12/09 14:13:33;;;;;;;5.43;2.67;;;;;;;;;;7382105;19;20504;-71
2021/12/09 14:16:11;;;;;;;3.28;1.80;;;;;;;;;;7381073;19;20003;-74
2021/12/09 14:21:27;;;;;;;3.38;1.73;;;;;;;;;;7373079;19;20027;-72
2021/12/09 14:24:10;;;;;;;3.50;1.77;;;;;;;;;;7379582;19;20032;-72
2021/12/09 14:26:37;;;;;;;2.75;1.80;;;;;;;;;;7382166;19;20010;-72
2021/12/09 14:29:05;;;;;;;5.43;1.88;;;;;;;;;;7379611;19;20014;-72
2021/12/09 14:31:39;;;;;;;3.03;1.75;;;;;;;;;;7377860;19;20037;-73
2021/12/09 14:34:04;;;;;;;2.70;1.70;;;;;;;;;;7378696;19;20010;-72
2021/12/09 14:36:31;;;;;;;4.20;2.03;;;;;;;;;;7378075;19;20146;-73
2021/12/09 14:39:10;;;;;;;6.40;2.47;;;;;;;;;;7375941;19;20352;-72
2021/12/09 14:41:37;;;;;;;5.68;2.88;;;;;;;;;;7373710;19;20014;-75
2021/12/09 14:44:08;;;;;;;4.05;2.10;;;;;;;;;;7378071;19;20003;-74
2021/12/09 14:46:37;;;;;;;2.55;1.90;;;;;;;;;;7375420;19;20015;-73
2021/12/09 14:49:23;;;;;;;3.72;2.00;;;;;;;;;;7376414;19;20443;-72
2021/12/09 14:51:51;;;;;;;5.25;2.33;;;;;;;;;;7377901;19;20461;-72
2021/12/09 14:54:17;;;;;;;5.22;1.73;;;;;;;;;;7380122;19;20003;-72
2021/12/09 14:56:55;;;;;;;4.68;1.75;;;;;;;;;;7377877;19;20003;-72
2021/12/09 14:59:21;;;;;;;3.75;2.10;;;;;;;;;;7377259;19;20328;-73
2021/12/09 15:01:50;;;;;;;4.13;1.83;;;;;;;;;;7371629;19;20003;-73
2021/12/09 15:04:30;;;;;;;3.72;1.90;;;;;;;;;;7376504;19;20809;-72
2021/12/09 15:06:59;;;;;;;4.72;1.90;;;;;;;;;;7380817;19;20453;-73
2021/12/09 15:09:24;;;;;;;3.60;1.80;;;;;;;;;;7385137;19;19998;-70
2021/12/09 15:11:56;;;;;;;3.88;1.60;;;;;;;;;;7387045;19;20439;-72
2021/12/09 15:14:26;;;;;;;3.70;1.88;;;;;;;;;;7389897;19;20006;-72
2021/12/09 15:17:04;;;;;;;4.05;1.67;;;;;;;;;;7386725;19;20006;-72
2021/12/09 15:19:29;;;;;;;4.97;1.70;;;;;;;;;;7385051;19;20457;-71
2021/12/09 15:23:06;;;;;;;4.20;1.45;;;;;;;;;;7381636;19;20010;-70
2021/12/09 15:25:34;;;;;;;5.50;1.55;;;;;;;;;;7381198;19;20055;-72
2021/12/09 15:28:03;;;;;;;4.05;1.48;;;;;;;;;;7384579;19;20011;-74
2021/12/09 15:30:47;;;;;;;3.13;1.80;;;;;;;;;;7385572;19;20058;-72
2021/12/09 15:33:43;;;;;;;2.75;1.73;;;;;;;;;;7384000;19;20113;-71
2021/12/09 15:36:13;;;;;;;;;;;;;;;;;;7385378;19;20074;-72
2021/12/09 15:38:42;;;;;;;2.92;1.63;;;;;;;;;;7382762;19;19915;-72
2021/12/09 15:41:09;;;;;;;2.50;1.70;;;;;;;;;;7380886;19;20086;-71
2021/12/09 15:43:35;;;;;;;3.10;1.90;;;;;;;;;;7381766;19;20006;-72
2021/12/09 15:46:04;;;;;;;3.53;2.25;;;;;;;;;;7384036;19;20129;-73